sensor_id;sensor_type;location;lat;lon;timestamp;P1;durP1;ratioP1;P2;durP2;ratioP2
15194;SDS011;7698;42.478;23.756;2023-12-07T00:01:10;9.70;;;7.97;;
15194;SDS011;7698;42.478;23.756;2023-12-07T00:03:36;9.27;;;7.28;;
15194;SDS011;7698;42.478;23.756;2023-12-07T00:06:03;9.90;;;7.78;;
15194;SDS011;7698;42.478;23.756;2023-12-07T00:08:31;11.07;;;9.52;;
15194;SDS011;7698;42.478;23.756;2023-12-07T00:10:58;9.88;;;7.22;;
15194;SDS011;7698;42.478;23.756;2023-12-07T00:13:24;8.10;;;6.47;;
15194;SDS011;7698;42.478;23.756;2023-12-07T00:15:51;8.57;;;7.45;;
15194;SDS011;7698;42.478;23.756;2023-12-07T00:18:17;10.57;;;8.13;;
15194;SDS011;7698;42.478;23.756;2023-12-07T00:20:44;7.28;;;6.28;;
15194;SDS011;7698;42.478;23.756;2023-12-07T00:23:11;8.35;;;6.97;;
15194;SDS011;7698;42.478;23.756;2023-12-07T00:25:39;10.32;;;7.45;;
15194;SDS011;7698;42.478;23.756;2023-12-07T00:28:05;8.02;;;6.70;;
15194;SDS011;7698;42.478;23.756;2023-12-07T00:30:32;9.10;;;7.90;;
15194;SDS011;7698;42.478;23.756;2023-12-07T00:32:58;9.50;;;8.10;;
15194;SDS011;7698;42.478;23.756;2023-12-07T00:35:25;9.98;;;7.72;;
15194;SDS011;7698;42.478;23.756;2023-12-07T00:37:54;7.75;;;6.75;;
15194;SDS011;7698;42.478;23.756;2023-12-07T00:40:21;7.65;;;6.75;;
15194;SDS011;7698;42.478;23.756;2023-12-07T00:42:49;8.48;;;6.93;;
15194;SDS011;7698;42.478;23.756;2023-12-07T00:45:15;7.75;;;6.28;;
15194;SDS011;7698;42.478;23.756;2023-12-07T00:47:42;8.73;;;7.38;;
15194;SDS011;7698;42.478;23.756;2023-12-07T00:50:11;10.20;;;8.93;;
15194;SDS011;7698;42.478;23.756;2023-12-07T00:52:37;10.23;;;7.95;;
15194;SDS011;7698;42.478;23.756;2023-12-07T00:55:04;9.20;;;7.22;;
15194;SDS011;7698;42.478;23.756;2023-12-07T00:57:31;10.95;;;8.65;;
15194;SDS011;7698;42.478;23.756;2023-12-07T00:59:59;8.90;;;6.95;;
15194;SDS011;7698;42.478;23.756;2023-12-07T01:02:25;9.75;;;8.50;;
15194;SDS011;7698;42.478;23.756;2023-12-07T01:04:52;10.23;;;8.82;;
15194;SDS011;7698;42.478;23.756;2023-12-07T01:07:19;9.55;;;8.05;;
15194;SDS011;7698;42.478;23.756;2023-12-07T01:09:46;10.55;;;7.88;;
15194;SDS011;7698;42.478;23.756;2023-12-07T01:12:12;10.27;;;7.70;;
15194;SDS011;7698;42.478;23.756;2023-12-07T01:14:39;8.00;;;6.90;;
15194;SDS011;7698;42.478;23.756;2023-12-07T01:17:07;9.20;;;6.70;;
15194;SDS011;7698;42.478;23.756;2023-12-07T01:19:34;8.20;;;6.05;;
15194;SDS011;7698;42.478;23.756;2023-12-07T01:22:00;7.65;;;6.03;;
15194;SDS011;7698;42.478;23.756;2023-12-07T01:24:27;8.40;;;6.75;;
15194;SDS011;7698;42.478;23.756;2023-12-07T01:26:54;10.95;;;7.75;;
15194;SDS011;7698;42.478;23.756;2023-12-07T01:29:20;8.68;;;6.93;;
15194;SDS011;7698;42.478;23.756;2023-12-07T01:31:47;9.60;;;7.57;;
15194;SDS011;7698;42.478;23.756;2023-12-07T01:34:16;6.80;;;6.10;;
15194;SDS011;7698;42.478;23.756;2023-12-07T01:36:43;10.05;;;7.72;;
15194;SDS011;7698;42.478;23.756;2023-12-07T01:39:09;8.05;;;6.32;;
15194;SDS011;7698;42.478;23.756;2023-12-07T01:41:38;7.72;;;6.70;;
15194;SDS011;7698;42.478;23.756;2023-12-07T01:44:05;10.38;;;7.28;;
15194;SDS011;7698;42.478;23.756;2023-12-07T01:46:31;7.30;;;5.85;;
15194;SDS011;7698;42.478;23.756;2023-12-07T01:48:58;7.53;;;6.43;;
15194;SDS011;7698;42.478;23.756;2023-12-07T01:51:27;10.35;;;7.45;;
15194;SDS011;7698;42.478;23.756;2023-12-07T01:53:53;8.15;;;6.82;;
15194;SDS011;7698;42.478;23.756;2023-12-07T01:56:20;8.02;;;6.80;;
15194;SDS011;7698;42.478;23.756;2023-12-07T01:58:47;9.82;;;7.80;;
15194;SDS011;7698;42.478;23.756;2023-12-07T02:01:13;9.35;;;7.93;;
15194;SDS011;7698;42.478;23.756;2023-12-07T02:03:40;8.48;;;7.13;;
15194;SDS011;7698;42.478;23.756;2023-12-07T02:06:07;19.38;;;12.90;;
15194;SDS011;7698;42.478;23.756;2023-12-07T02:08:35;27.13;;;17.70;;
15194;SDS011;7698;42.478;23.756;2023-12-07T02:11:06;21.92;;;15.52;;
15194;SDS011;7698;42.478;23.756;2023-12-07T02:13:34;14.70;;;9.77;;
15194;SDS011;7698;42.478;23.756;2023-12-07T02:16:00;7.88;;;6.72;;
15194;SDS011;7698;42.478;23.756;2023-12-07T02:18:31;8.07;;;6.28;;
15194;SDS011;7698;42.478;23.756;2023-12-07T02:21:01;10.23;;;7.05;;
15194;SDS011;7698;42.478;23.756;2023-12-07T02:23:30;9.50;;;6.72;;
15194;SDS011;7698;42.478;23.756;2023-12-07T02:29:02;6.03;;;5.25;;
15194;SDS011;7698;42.478;23.756;2023-12-07T02:31:29;9.10;;;6.82;;
15194;SDS011;7698;42.478;23.756;2023-12-07T02:33:55;7.88;;;5.47;;
15194;SDS011;7698;42.478;23.756;2023-12-07T02:36:23;9.60;;;7.68;;
15194;SDS011;7698;42.478;23.756;2023-12-07T02:38:50;10.35;;;7.63;;
15194;SDS011;7698;42.478;23.756;2023-12-07T02:41:17;8.48;;;6.47;;
15194;SDS011;7698;42.478;23.756;2023-12-07T02:43:44;12.25;;;8.00;;
15194;SDS011;7698;42.478;23.756;2023-12-07T02:46:12;9.27;;;6.72;;
15194;SDS011;7698;42.478;23.756;2023-12-07T02:48:39;8.80;;;7.20;;
15194;SDS011;7698;42.478;23.756;2023-12-07T02:51:05;9.07;;;7.65;;
15194;SDS011;7698;42.478;23.756;2023-12-07T02:53:32;10.55;;;8.32;;
15194;SDS011;7698;42.478;23.756;2023-12-07T02:55:58;11.82;;;9.10;;
15194;SDS011;7698;42.478;23.756;2023-12-07T02:58:25;12.57;;;9.93;;
15194;SDS011;7698;42.478;23.756;2023-12-07T03:00:52;10.50;;;8.52;;
15194;SDS011;7698;42.478;23.756;2023-12-07T03:03:19;11.52;;;9.35;;
15194;SDS011;7698;42.478;23.756;2023-12-07T03:05:46;10.38;;;8.27;;
15194;SDS011;7698;42.478;23.756;2023-12-07T03:08:12;11.20;;;8.48;;
15194;SDS011;7698;42.478;23.756;2023-12-07T03:10:39;13.48;;;9.68;;
15194;SDS011;7698;42.478;23.756;2023-12-07T03:13:05;17.40;;;11.65;;
15194;SDS011;7698;42.478;23.756;2023-12-07T03:15:32;17.13;;;11.00;;
15194;SDS011;7698;42.478;23.756;2023-12-07T03:17:59;18.38;;;13.45;;
15194;SDS011;7698;42.478;23.756;2023-12-07T03:20:26;17.08;;;12.05;;
15194;SDS011;7698;42.478;23.756;2023-12-07T03:22:53;16.23;;;10.55;;
15194;SDS011;7698;42.478;23.756;2023-12-07T03:25:19;17.02;;;11.80;;
15194;SDS011;7698;42.478;23.756;2023-12-07T03:27:46;19.67;;;13.43;;
15194;SDS011;7698;42.478;23.756;2023-12-07T03:30:13;18.10;;;12.55;;
15194;SDS011;7698;42.478;23.756;2023-12-07T03:32:39;21.13;;;13.93;;
15194;SDS011;7698;42.478;23.756;2023-12-07T03:35:06;18.30;;;12.13;;
15194;SDS011;7698;42.478;23.756;2023-12-07T03:37:34;20.50;;;12.80;;
15194;SDS011;7698;42.478;23.756;2023-12-07T03:40:00;18.83;;;13.55;;
15194;SDS011;7698;42.478;23.756;2023-12-07T03:42:29;19.45;;;12.98;;
15194;SDS011;7698;42.478;23.756;2023-12-07T03:44:56;17.50;;;12.65;;
15194;SDS011;7698;42.478;23.756;2023-12-07T03:47:23;18.83;;;11.98;;
15194;SDS011;7698;42.478;23.756;2023-12-07T03:49:49;16.90;;;11.50;;
15194;SDS011;7698;42.478;23.756;2023-12-07T03:52:16;26.00;;;15.57;;
15194;SDS011;7698;42.478;23.756;2023-12-07T03:54:44;17.88;;;11.98;;
15194;SDS011;7698;42.478;23.756;2023-12-07T03:57:10;26.92;;;15.32;;
15194;SDS011;7698;42.478;23.756;2023-12-07T03:59:37;21.55;;;13.65;;
15194;SDS011;7698;42.478;23.756;2023-12-07T04:02:03;19.08;;;12.52;;
15194;SDS011;7698;42.478;23.756;2023-12-07T04:04:30;20.80;;;13.35;;
15194;SDS011;7698;42.478;23.756;2023-12-07T04:06:57;21.05;;;13.48;;
15194;SDS011;7698;42.478;23.756;2023-12-07T04:09:23;24.10;;;16.27;;
15194;SDS011;7698;42.478;23.756;2023-12-07T04:11:51;22.20;;;14.02;;
15194;SDS011;7698;42.478;23.756;2023-12-07T04:14:18;23.80;;;14.45;;
15194;SDS011;7698;42.478;23.756;2023-12-07T04:16:44;22.58;;;14.23;;
15194;SDS011;7698;42.478;23.756;2023-12-07T04:19:11;23.58;;;13.70;;
15194;SDS011;7698;42.478;23.756;2023-12-07T04:21:38;24.33;;;14.52;;
15194;SDS011;7698;42.478;23.756;2023-12-07T04:24:04;22.92;;;13.25;;
15194;SDS011;7698;42.478;23.756;2023-12-07T04:26:31;22.50;;;13.30;;
15194;SDS011;7698;42.478;23.756;2023-12-07T04:28:59;23.10;;;14.02;;
15194;SDS011;7698;42.478;23.756;2023-12-07T04:31:25;18.90;;;12.32;;
15194;SDS011;7698;42.478;23.756;2023-12-07T04:33:52;22.25;;;12.90;;
15194;SDS011;7698;42.478;23.756;2023-12-07T04:36:18;16.50;;;10.75;;
15194;SDS011;7698;42.478;23.756;2023-12-07T04:38:45;18.50;;;12.27;;
15194;SDS011;7698;42.478;23.756;2023-12-07T04:41:11;20.30;;;12.82;;
15194;SDS011;7698;42.478;23.756;2023-12-07T04:43:38;19.90;;;12.93;;
15194;SDS011;7698;42.478;23.756;2023-12-07T04:46:06;18.88;;;13.20;;
15194;SDS011;7698;42.478;23.756;2023-12-07T04:48:33;20.42;;;13.13;;
15194;SDS011;7698;42.478;23.756;2023-12-07T04:50:59;19.83;;;13.32;;
15194;SDS011;7698;42.478;23.756;2023-12-07T04:53:26;25.90;;;15.95;;
15194;SDS011;7698;42.478;23.756;2023-12-07T04:55:52;25.13;;;15.15;;
15194;SDS011;7698;42.478;23.756;2023-12-07T04:58:19;28.42;;;15.32;;
15194;SDS011;7698;42.478;23.756;2023-12-07T05:00:45;28.90;;;16.25;;
15194;SDS011;7698;42.478;23.756;2023-12-07T05:03:13;25.00;;;14.45;;
15194;SDS011;7698;42.478;23.756;2023-12-07T05:05:40;23.17;;;13.70;;
15194;SDS011;7698;42.478;23.756;2023-12-07T05:08:07;23.65;;;15.00;;
15194;SDS011;7698;42.478;23.756;2023-12-07T05:10:33;26.20;;;15.55;;
15194;SDS011;7698;42.478;23.756;2023-12-07T05:13:00;24.10;;;14.27;;
15194;SDS011;7698;42.478;23.756;2023-12-07T05:15:26;25.30;;;15.25;;
15194;SDS011;7698;42.478;23.756;2023-12-07T05:17:53;24.80;;;14.18;;
15194;SDS011;7698;42.478;23.756;2023-12-07T05:20:21;20.27;;;13.48;;
15194;SDS011;7698;42.478;23.756;2023-12-07T05:22:49;21.45;;;12.65;;
15194;SDS011;7698;42.478;23.756;2023-12-07T05:25:16;20.33;;;13.48;;
15194;SDS011;7698;42.478;23.756;2023-12-07T05:27:42;23.48;;;15.30;;
15194;SDS011;7698;42.478;23.756;2023-12-07T05:30:09;21.40;;;14.48;;
15194;SDS011;7698;42.478;23.756;2023-12-07T05:32:36;22.90;;;14.60;;
15194;SDS011;7698;42.478;23.756;2023-12-07T05:35:02;18.52;;;11.75;;
15194;SDS011;7698;42.478;23.756;2023-12-07T05:37:30;18.65;;;12.00;;
15194;SDS011;7698;42.478;23.756;2023-12-07T05:39:57;21.63;;;13.18;;
15194;SDS011;7698;42.478;23.756;2023-12-07T05:42:23;22.25;;;14.27;;
15194;SDS011;7698;42.478;23.756;2023-12-07T05:44:50;20.98;;;13.50;;
15194;SDS011;7698;42.478;23.756;2023-12-07T05:47:16;23.20;;;13.95;;
15194;SDS011;7698;42.478;23.756;2023-12-07T05:49:43;19.10;;;13.10;;
15194;SDS011;7698;42.478;23.756;2023-12-07T05:52:10;19.17;;;12.40;;
15194;SDS011;7698;42.478;23.756;2023-12-07T05:54:38;20.58;;;13.05;;
15194;SDS011;7698;42.478;23.756;2023-12-07T05:57:07;21.95;;;13.75;;
15194;SDS011;7698;42.478;23.756;2023-12-07T05:59:36;19.15;;;12.27;;
15194;SDS011;7698;42.478;23.756;2023-12-07T06:02:03;24.10;;;15.10;;
15194;SDS011;7698;42.478;23.756;2023-12-07T06:04:29;22.17;;;14.13;;
15194;SDS011;7698;42.478;23.756;2023-12-07T06:06:56;20.58;;;14.50;;
15194;SDS011;7698;42.478;23.756;2023-12-07T06:09:22;22.00;;;14.50;;
15194;SDS011;7698;42.478;23.756;2023-12-07T06:11:50;18.55;;;13.30;;
15194;SDS011;7698;42.478;23.756;2023-12-07T06:14:17;18.60;;;12.93;;
15194;SDS011;7698;42.478;23.756;2023-12-07T06:16:43;18.75;;;12.98;;
15194;SDS011;7698;42.478;23.756;2023-12-07T06:19:10;20.42;;;12.68;;
15194;SDS011;7698;42.478;23.756;2023-12-07T06:21:36;18.80;;;12.98;;
15194;SDS011;7698;42.478;23.756;2023-12-07T06:24:03;16.15;;;12.48;;
15194;SDS011;7698;42.478;23.756;2023-12-07T06:26:30;16.13;;;13.20;;
15194;SDS011;7698;42.478;23.756;2023-12-07T06:28:58;24.35;;;16.20;;
15194;SDS011;7698;42.478;23.756;2023-12-07T06:31:24;22.52;;;16.23;;
15194;SDS011;7698;42.478;23.756;2023-12-07T06:33:51;23.23;;;16.23;;
15194;SDS011;7698;42.478;23.756;2023-12-07T06:36:18;25.35;;;16.27;;
15194;SDS011;7698;42.478;23.756;2023-12-07T06:38:45;19.08;;;14.50;;
15194;SDS011;7698;42.478;23.756;2023-12-07T06:41:12;14.70;;;11.35;;
15194;SDS011;7698;42.478;23.756;2023-12-07T06:43:38;15.60;;;11.25;;
15194;SDS011;7698;42.478;23.756;2023-12-07T06:46:06;16.15;;;11.05;;
15194;SDS011;7698;42.478;23.756;2023-12-07T06:48:33;18.55;;;13.07;;
15194;SDS011;7698;42.478;23.756;2023-12-07T06:51:00;16.27;;;10.63;;
15194;SDS011;7698;42.478;23.756;2023-12-07T06:53:27;18.67;;;12.77;;
15194;SDS011;7698;42.478;23.756;2023-12-07T06:55:54;17.67;;;12.93;;
15194;SDS011;7698;42.478;23.756;2023-12-07T06:58:20;17.15;;;12.68;;
15194;SDS011;7698;42.478;23.756;2023-12-07T07:00:47;16.35;;;10.82;;
15194;SDS011;7698;42.478;23.756;2023-12-07T07:03:15;16.10;;;11.52;;
15194;SDS011;7698;42.478;23.756;2023-12-07T07:05:42;19.25;;;11.65;;
15194;SDS011;7698;42.478;23.756;2023-12-07T07:08:08;17.20;;;11.73;;
15194;SDS011;7698;42.478;23.756;2023-12-07T07:10:35;14.63;;;11.52;;
15194;SDS011;7698;42.478;23.756;2023-12-07T07:13:01;16.17;;;11.52;;
15194;SDS011;7698;42.478;23.756;2023-12-07T07:15:29;19.98;;;12.88;;
15194;SDS011;7698;42.478;23.756;2023-12-07T07:17:56;18.40;;;13.10;;
15194;SDS011;7698;42.478;23.756;2023-12-07T07:20:24;20.73;;;14.00;;
15194;SDS011;7698;42.478;23.756;2023-12-07T07:22:50;19.52;;;13.55;;
15194;SDS011;7698;42.478;23.756;2023-12-07T07:25:17;14.75;;;11.00;;
15194;SDS011;7698;42.478;23.756;2023-12-07T07:27:45;17.98;;;13.65;;
15194;SDS011;7698;42.478;23.756;2023-12-07T07:30:12;16.95;;;12.68;;
15194;SDS011;7698;42.478;23.756;2023-12-07T07:32:38;16.75;;;11.70;;
15194;SDS011;7698;42.478;23.756;2023-12-07T07:35:05;14.27;;;11.32;;
15194;SDS011;7698;42.478;23.756;2023-12-07T07:37:33;15.52;;;11.40;;
15194;SDS011;7698;42.478;23.756;2023-12-07T07:39:59;12.65;;;9.63;;
15194;SDS011;7698;42.478;23.756;2023-12-07T07:42:31;14.60;;;11.05;;
15194;SDS011;7698;42.478;23.756;2023-12-07T07:44:58;16.80;;;11.43;;
15194;SDS011;7698;42.478;23.756;2023-12-07T07:47:24;13.90;;;10.68;;
15194;SDS011;7698;42.478;23.756;2023-12-07T07:49:51;13.93;;;10.68;;
15194;SDS011;7698;42.478;23.756;2023-12-07T07:52:18;13.32;;;10.45;;
15194;SDS011;7698;42.478;23.756;2023-12-07T07:54:45;12.32;;;9.57;;
15194;SDS011;7698;42.478;23.756;2023-12-07T07:57:12;13.70;;;11.18;;
15194;SDS011;7698;42.478;23.756;2023-12-07T07:59:38;12.52;;;10.63;;
15194;SDS011;7698;42.478;23.756;2023-12-07T08:02:05;13.93;;;10.85;;
15194;SDS011;7698;42.478;23.756;2023-12-07T08:04:31;14.35;;;12.02;;
15194;SDS011;7698;42.478;23.756;2023-12-07T08:06:58;13.65;;;10.52;;
15194;SDS011;7698;42.478;23.756;2023-12-07T08:09:25;12.13;;;10.10;;
15194;SDS011;7698;42.478;23.756;2023-12-07T08:11:53;11.82;;;10.27;;
15194;SDS011;7698;42.478;23.756;2023-12-07T08:14:19;11.77;;;9.57;;
15194;SDS011;7698;42.478;23.756;2023-12-07T08:16:46;10.55;;;8.68;;
15194;SDS011;7698;42.478;23.756;2023-12-07T08:19:12;9.20;;;7.80;;
15194;SDS011;7698;42.478;23.756;2023-12-07T08:21:39;10.45;;;8.35;;
15194;SDS011;7698;42.478;23.756;2023-12-07T08:24:05;8.38;;;7.47;;
15194;SDS011;7698;42.478;23.756;2023-12-07T08:26:32;8.05;;;7.00;;
15194;SDS011;7698;42.478;23.756;2023-12-07T08:29:00;7.43;;;6.63;;
15194;SDS011;7698;42.478;23.756;2023-12-07T08:31:26;8.80;;;7.55;;
15194;SDS011;7698;42.478;23.756;2023-12-07T08:33:53;8.07;;;7.15;;
15194;SDS011;7698;42.478;23.756;2023-12-07T08:36:19;8.70;;;7.20;;
15194;SDS011;7698;42.478;23.756;2023-12-07T08:38:46;6.88;;;5.82;;
15194;SDS011;7698;42.478;23.756;2023-12-07T08:41:12;6.72;;;6.03;;
15194;SDS011;7698;42.478;23.756;2023-12-07T08:43:39;7.10;;;6.40;;
15194;SDS011;7698;42.478;23.756;2023-12-07T08:46:07;7.53;;;6.63;;
15194;SDS011;7698;42.478;23.756;2023-12-07T08:48:35;7.35;;;6.45;;
15194;SDS011;7698;42.478;23.756;2023-12-07T08:51:02;6.63;;;5.40;;
15194;SDS011;7698;42.478;23.756;2023-12-07T08:53:28;7.13;;;6.30;;
15194;SDS011;7698;42.478;23.756;2023-12-07T08:55:55;7.68;;;6.30;;
15194;SDS011;7698;42.478;23.756;2023-12-07T08:58:22;7.93;;;6.32;;
15194;SDS011;7698;42.478;23.756;2023-12-07T09:00:49;6.03;;;5.07;;
15194;SDS011;7698;42.478;23.756;2023-12-07T09:03:16;6.68;;;5.63;;
15194;SDS011;7698;42.478;23.756;2023-12-07T09:05:42;6.63;;;5.82;;
15194;SDS011;7698;42.478;23.756;2023-12-07T09:08:09;7.43;;;5.68;;
15194;SDS011;7698;42.478;23.756;2023-12-07T09:10:35;6.60;;;5.55;;
15194;SDS011;7698;42.478;23.756;2023-12-07T09:13:02;8.40;;;7.22;;
15194;SDS011;7698;42.478;23.756;2023-12-07T09:15:28;6.45;;;5.75;;
15194;SDS011;7698;42.478;23.756;2023-12-07T09:17:55;7.47;;;6.30;;
15194;SDS011;7698;42.478;23.756;2023-12-07T09:20:23;6.70;;;6.00;;
15194;SDS011;7698;42.478;23.756;2023-12-07T09:22:49;8.38;;;7.47;;
15194;SDS011;7698;42.478;23.756;2023-12-07T09:25:16;7.88;;;6.88;;
15194;SDS011;7698;42.478;23.756;2023-12-07T09:27:43;7.65;;;6.85;;
15194;SDS011;7698;42.478;23.756;2023-12-07T09:30:10;9.45;;;8.30;;
15194;SDS011;7698;42.478;23.756;2023-12-07T09:32:37;8.70;;;7.80;;
15194;SDS011;7698;42.478;23.756;2023-12-07T09:35:04;10.63;;;8.95;;
15194;SDS011;7698;42.478;23.756;2023-12-07T09:37:32;9.90;;;8.75;;
15194;SDS011;7698;42.478;23.756;2023-12-07T09:39:58;12.38;;;11.05;;
15194;SDS011;7698;42.478;23.756;2023-12-07T09:42:25;16.75;;;14.18;;
15194;SDS011;7698;42.478;23.756;2023-12-07T09:44:52;15.27;;;13.65;;
15194;SDS011;7698;42.478;23.756;2023-12-07T09:47:19;16.83;;;14.20;;
15194;SDS011;7698;42.478;23.756;2023-12-07T09:49:46;17.50;;;14.18;;
15194;SDS011;7698;42.478;23.756;2023-12-07T09:52:12;15.75;;;14.05;;
15194;SDS011;7698;42.478;23.756;2023-12-07T09:54:41;18.70;;;16.10;;
15194;SDS011;7698;42.478;23.756;2023-12-07T09:57:08;17.30;;;14.70;;
15194;SDS011;7698;42.478;23.756;2023-12-07T09:59:35;17.80;;;15.93;;
15194;SDS011;7698;42.478;23.756;2023-12-07T10:02:02;21.20;;;17.02;;
15194;SDS011;7698;42.478;23.756;2023-12-07T10:04:28;18.90;;;16.88;;
15194;SDS011;7698;42.478;23.756;2023-12-07T10:06:56;17.65;;;15.50;;
15194;SDS011;7698;42.478;23.756;2023-12-07T10:09:23;14.32;;;12.60;;
15194;SDS011;7698;42.478;23.756;2023-12-07T10:11:51;14.07;;;12.63;;
15194;SDS011;7698;42.478;23.756;2023-12-07T10:14:27;14.88;;;13.10;;
15194;SDS011;7698;42.478;23.756;2023-12-07T10:16:54;11.32;;;10.23;;
15194;SDS011;7698;42.478;23.756;2023-12-07T10:19:22;10.02;;;9.02;;
15194;SDS011;7698;42.478;23.756;2023-12-07T10:21:49;9.43;;;8.27;;
15194;SDS011;7698;42.478;23.756;2023-12-07T10:24:16;10.38;;;8.30;;
15194;SDS011;7698;42.478;23.756;2023-12-07T10:26:43;7.93;;;7.05;;
15194;SDS011;7698;42.478;23.756;2023-12-07T10:29:11;7.97;;;7.18;;
15194;SDS011;7698;42.478;23.756;2023-12-07T10:31:38;8.07;;;7.22;;
15194;SDS011;7698;42.478;23.756;2023-12-07T10:34:04;8.23;;;7.50;;
15194;SDS011;7698;42.478;23.756;2023-12-07T10:36:31;8.75;;;7.70;;
15194;SDS011;7698;42.478;23.756;2023-12-07T10:38:58;7.15;;;6.45;;
15194;SDS011;7698;42.478;23.756;2023-12-07T10:41:25;7.10;;;6.40;;
15194;SDS011;7698;42.478;23.756;2023-12-07T10:43:52;6.55;;;5.93;;
15194;SDS011;7698;42.478;23.756;2023-12-07T10:46:20;5.95;;;5.30;;
15194;SDS011;7698;42.478;23.756;2023-12-07T10:48:47;5.40;;;4.90;;
15194;SDS011;7698;42.478;23.756;2023-12-07T10:54:00;5.10;;;4.60;;
15194;SDS011;7698;42.478;23.756;2023-12-07T10:56:34;5.97;;;5.38;;
15194;SDS011;7698;42.478;23.756;2023-12-07T10:59:01;6.40;;;5.78;;
15194;SDS011;7698;42.478;23.756;2023-12-07T11:01:28;7.13;;;5.68;;
15194;SDS011;7698;42.478;23.756;2023-12-07T11:03:56;6.15;;;5.22;;
15194;SDS011;7698;42.478;23.756;2023-12-07T11:06:23;5.65;;;5.15;;
15194;SDS011;7698;42.478;23.756;2023-12-07T11:08:50;5.13;;;4.63;;
15194;SDS011;7698;42.478;23.756;2023-12-07T11:11:19;5.03;;;4.35;;
15194;SDS011;7698;42.478;23.756;2023-12-07T11:13:49;4.50;;;4.10;;
15194;SDS011;7698;42.478;23.756;2023-12-07T11:16:17;4.30;;;3.90;;
15194;SDS011;7698;42.478;23.756;2023-12-07T11:18:55;4.25;;;3.85;;
15194;SDS011;7698;42.478;23.756;2023-12-07T11:21:22;3.00;;;2.80;;
15194;SDS011;7698;42.478;23.756;2023-12-07T11:23:48;4.55;;;3.60;;
15194;SDS011;7698;42.478;23.756;2023-12-07T11:26:18;3.38;;;3.08;;
15194;SDS011;7698;42.478;23.756;2023-12-07T11:28:45;3.42;;;3.15;;
15194;SDS011;7698;42.478;23.756;2023-12-07T11:31:11;3.38;;;2.92;;
15194;SDS011;7698;42.478;23.756;2023-12-07T11:33:38;2.97;;;2.67;;
15194;SDS011;7698;42.478;23.756;2023-12-07T11:36:07;2.88;;;2.67;;
15194;SDS011;7698;42.478;23.756;2023-12-07T11:38:35;3.47;;;3.15;;
15194;SDS011;7698;42.478;23.756;2023-12-07T11:41:02;2.67;;;2.47;;
15194;SDS011;7698;42.478;23.756;2023-12-07T11:43:41;2.90;;;2.55;;
15194;SDS011;7698;42.478;23.756;2023-12-07T11:46:11;2.55;;;2.35;;
15194;SDS011;7698;42.478;23.756;2023-12-07T11:48:39;2.72;;;2.53;;
15194;SDS011;7698;42.478;23.756;2023-12-07T11:51:07;2.55;;;2.35;;
15194;SDS011;7698;42.478;23.756;2023-12-07T11:53:34;1.95;;;1.85;;
15194;SDS011;7698;42.478;23.756;2023-12-07T11:56:01;2.53;;;2.33;;
15194;SDS011;7698;42.478;23.756;2023-12-07T11:58:28;1.70;;;1.60;;
15194;SDS011;7698;42.478;23.756;2023-12-07T12:00:55;1.85;;;1.75;;
15194;SDS011;7698;42.478;23.756;2023-12-07T12:03:22;2.35;;;2.00;;
15194;SDS011;7698;42.478;23.756;2023-12-07T12:05:49;1.95;;;1.70;;
15194;SDS011;7698;42.478;23.756;2023-12-07T12:08:17;1.75;;;1.65;;
15194;SDS011;7698;42.478;23.756;2023-12-07T12:10:44;1.83;;;1.52;;
15194;SDS011;7698;42.478;23.756;2023-12-07T12:13:11;1.70;;;1.60;;
15194;SDS011;7698;42.478;23.756;2023-12-07T12:15:38;2.80;;;2.20;;
15194;SDS011;7698;42.478;23.756;2023-12-07T12:18:05;2.17;;;1.98;;
15194;SDS011;7698;42.478;23.756;2023-12-07T12:20:32;1.77;;;1.67;;
15194;SDS011;7698;42.478;23.756;2023-12-07T12:22:59;1.63;;;1.52;;
15194;SDS011;7698;42.478;23.756;2023-12-07T12:25:28;1.77;;;1.67;;
15194;SDS011;7698;42.478;23.756;2023-12-07T12:27:56;1.80;;;1.60;;
15194;SDS011;7698;42.478;23.756;2023-12-07T12:30:23;2.35;;;1.60;;
15194;SDS011;7698;42.478;23.756;2023-12-07T12:32:50;1.42;;;1.30;;
15194;SDS011;7698;42.478;23.756;2023-12-07T12:35:17;1.73;;;1.48;;
15194;SDS011;7698;42.478;23.756;2023-12-07T12:37:44;1.30;;;1.20;;
15194;SDS011;7698;42.478;23.756;2023-12-07T12:40:11;1.25;;;1.15;;
15194;SDS011;7698;42.478;23.756;2023-12-07T12:42:40;2.15;;;1.60;;
15194;SDS011;7698;42.478;23.756;2023-12-07T12:45:07;1.40;;;1.30;;
15194;SDS011;7698;42.478;23.756;2023-12-07T12:47:36;1.35;;;1.25;;
15194;SDS011;7698;42.478;23.756;2023-12-07T12:50:02;1.10;;;0.98;;
15194;SDS011;7698;42.478;23.756;2023-12-07T12:52:30;0.98;;;0.98;;
15194;SDS011;7698;42.478;23.756;2023-12-07T12:54:57;1.95;;;1.10;;
15194;SDS011;7698;42.478;23.756;2023-12-07T12:57:23;1.35;;;1.20;;
15194;SDS011;7698;42.478;23.756;2023-12-07T12:59:51;0.88;;;0.88;;
15194;SDS011;7698;42.478;23.756;2023-12-07T13:02:18;1.27;;;1.17;;
15194;SDS011;7698;42.478;23.756;2023-12-07T13:04:45;1.20;;;1.10;;
15194;SDS011;7698;42.478;23.756;2023-12-07T13:07:11;0.88;;;0.88;;
15194;SDS011;7698;42.478;23.756;2023-12-07T13:09:38;0.90;;;0.90;;
15194;SDS011;7698;42.478;23.756;2023-12-07T13:12:05;1.27;;;1.17;;
15194;SDS011;7698;42.478;23.756;2023-12-07T13:14:32;1.00;;;0.93;;
15194;SDS011;7698;42.478;23.756;2023-12-07T13:17:01;1.27;;;1.17;;
15194;SDS011;7698;42.478;23.756;2023-12-07T13:19:29;1.23;;;1.13;;
15194;SDS011;7698;42.478;23.756;2023-12-07T13:21:56;0.80;;;0.80;;
15194;SDS011;7698;42.478;23.756;2023-12-07T13:24:22;0.98;;;0.98;;
15194;SDS011;7698;42.478;23.756;2023-12-07T13:26:49;1.33;;;1.20;;
15194;SDS011;7698;42.478;23.756;2023-12-07T13:29:15;0.70;;;0.70;;
15194;SDS011;7698;42.478;23.756;2023-12-07T13:31:42;1.13;;;0.80;;
15194;SDS011;7698;42.478;23.756;2023-12-07T13:34:10;1.23;;;1.10;;
15194;SDS011;7698;42.478;23.756;2023-12-07T13:36:36;0.90;;;0.90;;
15194;SDS011;7698;42.478;23.756;2023-12-07T13:39:03;1.10;;;1.00;;
15194;SDS011;7698;42.478;23.756;2023-12-07T13:41:30;1.05;;;0.95;;
15194;SDS011;7698;42.478;23.756;2023-12-07T13:43:57;0.80;;;0.80;;
15194;SDS011;7698;42.478;23.756;2023-12-07T13:46:23;1.00;;;1.00;;
15194;SDS011;7698;42.478;23.756;2023-12-07T13:48:50;1.10;;;1.00;;
15194;SDS011;7698;42.478;23.756;2023-12-07T13:51:18;1.17;;;1.08;;
15194;SDS011;7698;42.478;23.756;2023-12-07T13:53:45;1.77;;;1.30;;
15194;SDS011;7698;42.478;23.756;2023-12-07T13:56:14;1.38;;;1.17;;
15194;SDS011;7698;42.478;23.756;2023-12-07T13:58:40;1.65;;;1.55;;
15194;SDS011;7698;42.478;23.756;2023-12-07T14:01:07;1.42;;;1.33;;
15194;SDS011;7698;42.478;23.756;2023-12-07T14:03:34;1.33;;;1.23;;
15194;SDS011;7698;42.478;23.756;2023-12-07T14:06:02;1.63;;;1.52;;
15194;SDS011;7698;42.478;23.756;2023-12-07T14:08:30;1.30;;;1.20;;
15194;SDS011;7698;42.478;23.756;2023-12-07T14:10:56;1.75;;;1.50;;
15194;SDS011;7698;42.478;23.756;2023-12-07T14:13:23;1.38;;;1.27;;
15194;SDS011;7698;42.478;23.756;2023-12-07T14:15:50;1.50;;;1.40;;
15194;SDS011;7698;42.478;23.756;2023-12-07T14:18:17;1.42;;;1.33;;
15194;SDS011;7698;42.478;23.756;2023-12-07T14:20:43;1.52;;;1.40;;
15194;SDS011;7698;42.478;23.756;2023-12-07T14:23:10;1.40;;;1.30;;
15194;SDS011;7698;42.478;23.756;2023-12-07T14:25:38;1.30;;;1.20;;
15194;SDS011;7698;42.478;23.756;2023-12-07T14:28:05;1.10;;;1.10;;
15194;SDS011;7698;42.478;23.756;2023-12-07T14:30:32;1.35;;;1.25;;
15194;SDS011;7698;42.478;23.756;2023-12-07T14:32:59;2.28;;;1.63;;
15194;SDS011;7698;42.478;23.756;2023-12-07T14:35:25;1.80;;;1.40;;
15194;SDS011;7698;42.478;23.756;2023-12-07T14:37:53;2.55;;;2.20;;
15194;SDS011;7698;42.478;23.756;2023-12-07T14:40:20;2.25;;;1.80;;